Flugplatz Offenburg (EDTO)

Hier findest Du alle Informationen zum Flugplatz Offenburg (EDTO).

Informationen für Piloten zum Flugplatz Offenburg

Hier findest Du alle relevanten Informationen, die Du als Pilot benötigst, um Offenburg anzufliegen.

Flugplatz: Offenburg ICAO-Code: EDTO
Frequenz Turm: 119,750 Mhz GAFOR Gebiet: 61
Frequenz Ground: 119,750 Mhz Mogas: nein
Platzrunde: NO 1200 ft Landegebühr: -
Platzhöhe: - Sunrise: 03:38 Uhr UTC
Pisten: 02/20 - 910 m x 20 m, ASPH Sunset: 19:11 Uhr UTC

Flugwetter am Flugplatz Offenburg

Die METAR Information stammen aus EDTL (11.46 km entfernt).

METAR Code:
2022/05/16 05:50
EDTL 160550Z 21005KT CAVOK 19/14 Q1016

Temperatur: 18,4 °C Niederschlag: - Wind: 4,9 kt (max.: 12,2 kt in Böen)
Temperatur (min.): 18,1 °C Luftdruck: 1020 hPa Windrichtung: 289 °
Temperatur (max.): 19,0 °C Luftfeuchtigkeit: 77 % Bewölkung: 8/8

Flugschulen am Flugplatz Offenburg

Am Flugplatz Offenburg gibt es eine Flugschule.

Benachbarte Flugplätze und Flugschulen

Es gibt 8 weitere Flugplätze in einem Umkreis von 50 km um den Flugplatz Offenburg.

Jetzt anmelden

Passwort vergessen

Umfrage Archiv

Sendet Ihr ADS-B und/oder FLARM?

Ja
81.6 %
Nein
18.4 %
Stimmen: 147 | Diskussion
Anzeige: Roland Aircraft
Statistik Alle Mitglieder

Aktuell sind 59 Besucher online, davon 3 Mitglieder und 56 Gäste.


Mitglieder online:
Maraio  Hoppsing  Dschonny 

Anzeige: ULPower Aero Engines Anzeige: Pocket FMS